WetterOnline ( https://www.wetteronline.de )

Wetter aktuell Boitzenburger Land

Aktuelles Wetter: Grünow (57m)

6-stündlich | Neueste Meldungen
Ortszeit Temperatur Wetter
Do, 02.02. 13:00 3.4° C bewölkt
Do, 02.02. 7:00 3.2° C bedeckt
Do, 02.02. 1:00 4.6° C leichter Regen
Mi, 01.02. 19:00 3.2° C bedeckt
Mi, 01.02. 13:00 5.5° C bewölkt
Mi, 01.02. 7:00 3.8° C bewölkt
Mi, 01.02. 1:00 3.3° C leicht bewölkt
Di, 31.01. 19:00 5.1° C leichter Regen
Ortszeit Temperatur Wetter
Do, 02.02. 13:00 3.4° C bewölkt
Do, 02.02. 12:50 3.4° C bewölkt
Do, 02.02. 12:40 3.0° C bewölkt
Do, 02.02. 12:30 3.0° C Sprühregen
Do, 02.02. 12:20 3.0° C Sprühregen
Do, 02.02. 12:10 3.3° C bewölkt
Do, 02.02. 12:00 3.7° C bewölkt
Do, 02.02. 11:30 3.5° C bewölkt
Do, 02.02. 11:00 3.2° C bewölkt
Do, 02.02. 10:30 3.5° C bedeckt
Do, 02.02. 10:00 3.1° C bedeckt
Ortszeit Relative Feuchte Sichtweite
Do, 02.02. 13:00 71% 65 km
Do, 02.02. 7:00 73% 45 km
Do, 02.02. 1:00 79% 21 km
Mi, 01.02. 19:00 87% >70 km
Mi, 01.02. 13:00 79% 40 km
Mi, 01.02. 7:00 82% 23 km
Mi, 01.02. 1:00 82% 28 km
Di, 31.01. 19:00 91% 11 km
Ortszeit Relative Feuchte Sichtweite
Do, 02.02. 13:00 71% 65 km
Do, 02.02. 12:50 71% -
Do, 02.02. 12:40 70% -
Do, 02.02. 12:30 73% 60 km
Do, 02.02. 12:20 73% -
Do, 02.02. 12:10 71% -
Do, 02.02. 12:00 70% 40 km
Do, 02.02. 11:30 76% 45 km
Do, 02.02. 11:00 77% 60 km
Do, 02.02. 10:30 76% 50 km
Do, 02.02. 10:00 75% 45 km
Ortszeit Niederschlagsmenge Niederschlagsart
Do, 02.02. 13:00 0.1 l/m2 in 6 Std. Sprühregen, Niederschlag
Do, 02.02. 7:00 0.2 l/m2 in 12 Std. Regen
Do, 02.02. 1:00 0.1 l/m2 in 6 Std. Regen
Mi, 01.02. 19:00 0.8 l/m2 in 12 Std. Regen
Mi, 01.02. 13:00 0.1 l/m2 in 6 Std. Regen
Mi, 01.02. 7:00 2 l/m2 in 12 Std. Regen
Mi, 01.02. 1:00 2 l/m2 in 6 Std. Regen
Di, 31.01. 19:00 2 l/m2 in 12 Std. Regen
Ortszeit Niederschlagsmenge Niederschlagsart
Do, 02.02. 13:00 <0.05 l/m2 in 1 Std. Sprühregen, Niederschlag
Do, 02.02. 12:50 keine Meldung -
Do, 02.02. 12:40 keine Meldung -
Do, 02.02. 12:30 <0.05 l/m2 in 30 Min -
Do, 02.02. 12:20 keine Meldung -
Do, 02.02. 12:10 keine Meldung -
Do, 02.02. 12:00 <0.05 l/m2 in 1 Std. Niederschlag
Do, 02.02. 11:30 <0.05 l/m2 in 30 Min Regen
Do, 02.02. 11:00 0.0 l/m2 in 1 Std. -
Do, 02.02. 10:30 0.0 l/m2 in 30 Min -
Do, 02.02. 10:00 0.0 l/m2 in 1 Std. -
Ortszeit Stärke Spitze Richtung
km/h Bft. km/h Grad Sektor
Do, 02.02. 13:00 29 5 65 340° N
Do, 02.02. 7:00 35 5 74 310° NW
Do, 02.02. 1:00 40 6 61 260° W
Mi, 01.02. 19:00 28 4 52 270° W
Mi, 01.02. 13:00 28 4 50 270° W
Mi, 01.02. 7:00 24 4 56 250° W
Mi, 01.02. 1:00 32 5 72 270° W
Di, 31.01. 19:00 28 4 44 250° W
Ortszeit Stärke Spitze Richtung
km/h Bft. km/h Grad Sektor
Do, 02.02. 13:00 29 5 47 340° N
Do, 02.02. 12:50 29 5 - 340° N
Do, 02.02. 12:40 31 5 - 340° N
Do, 02.02. 12:30 30 5 46 330° NW
Do, 02.02. 12:20 30 5 - 330° NW
Do, 02.02. 12:10 30 5 - 330° NW
Do, 02.02. 12:00 35 5 52 330° NW
Do, 02.02. 11:30 31 5 48 330° NW
Do, 02.02. 11:00 32 5 47 330° NW
Do, 02.02. 10:30 24 4 37 310° NW
Do, 02.02. 10:00 31 5 56 320° NW
Ortszeit Untergrenze Bedeckung Gattung
total tief tief mittel hoch
Do, 02.02. 13:00 660 m 7/8 7/8 - - -
Do, 02.02. 7:00 660 m 8/8 8/8 - - -
Do, 02.02. 1:00 630 m 7/8 7/8 - - -
Mi, 01.02. 19:00 390 m 8/8 8/8 - - -
Mi, 01.02. 13:00 570 m 8/8 7/8 - - -
Mi, 01.02. 7:00 720 m 8/8 5/8 - - -
Mi, 01.02. 1:00 570 m 2/8 2/8 - - -
Di, 31.01. 19:00 300 m 8/8 8/8 - - -
Ortszeit Bedeckungsgrad in Achtel und Wolkenuntergrenze
Do, 02.02. 13:00 2(660m) 7(960m)
Do, 02.02. 12:50 2(660m) 7(960m)
Do, 02.02. 12:40 7
Do, 02.02. 12:30 7(690m) 7(900m)
Do, 02.02. 12:20 7(690m) 7(900m)
Do, 02.02. 12:10 7
Do, 02.02. 12:00 4(690m) 7(810m) 7(990m)
Do, 02.02. 11:30 1(480m) 5(810m) 7(930m)
Do, 02.02. 11:00 3(540m) 7(660m) 7(780m)
Do, 02.02. 10:30 2(690m) 8(840m) 8(1500m)
Do, 02.02. 10:00 7(660m) 7(1320m) 8(1500m)
Ortszeit Luftdruck NN (hPa) Tendenz (hPa in 3 Std.)
Do, 02.02. 13:00 1016 + 3,2
Do, 02.02. 7:00 1010 + 4,4
Do, 02.02. 1:00 1003 - 1,9
Mi, 01.02. 19:00 1005 + 0,6
Mi, 01.02. 13:00 1006 - 0,3
Mi, 01.02. 7:00 1007 - 1,1
Mi, 01.02. 1:00 1008 + 0,7
Di, 31.01. 19:00 1007 - 1,4
Ortszeit Luftdruck NN (hPa) Tendenz (hPa in 3 Std.)
Do, 02.02. 13:00 1016 + 3,2
Do, 02.02. 12:50 1016 keine Meldung
Do, 02.02. 12:40 1016 keine Meldung
Do, 02.02. 12:30 1016 + 3,1
Do, 02.02. 12:20 1016 keine Meldung
Do, 02.02. 12:10 1016 keine Meldung
Do, 02.02. 12:00 1015 + 3,0
Do, 02.02. 11:30 1015 + 3,0
Do, 02.02. 11:00 1014 + 3,1
Do, 02.02. 10:30 1013 + 2,9
Do, 02.02. 10:00 1013 + 3,1
Ortszeit Schneehöhe (cm)
Do, 02.02. 13:00 0
Do, 02.02. 7:00 0
Do, 02.02. 1:00 0
Mi, 01.02. 19:00 0
Mi, 01.02. 13:00 0
Mi, 01.02. 7:00 0
Mi, 01.02. 1:00 0
Di, 31.01. 19:00 0
Ortszeit Schneehöhe (cm)
Do, 02.02. 13:00 0
Do, 02.02. 12:50 0
Do, 02.02. 12:40 0
Do, 02.02. 12:30 0
Do, 02.02. 12:20 0
Do, 02.02. 12:10 0
Do, 02.02. 12:00 0
Do, 02.02. 11:30 0
Do, 02.02. 11:00 0
Do, 02.02. 10:30 0
Do, 02.02. 10:00 0
Link zu dieser Seite / Seite empfehlen

Das Wetter in ...